createdAt,value
2022-11-01T00:01:30.145Z,16.93
2022-11-01T00:03:33.441Z,13.60
2022-11-01T00:05:37.119Z,17.93
2022-11-01T00:07:40.571Z,15.37
2022-11-01T00:09:43.711Z,17.20
2022-11-01T00:11:48.868Z,14.97
2022-11-01T00:13:52.541Z,19.30
2022-11-01T00:15:55.662Z,16.40
2022-11-01T00:17:59.308Z,16.83
2022-11-01T00:20:02.621Z,13.03
2022-11-01T00:22:05.779Z,17.97
2022-11-01T00:24:09.362Z,14.13
2022-11-01T00:26:18.182Z,15.47
2022-11-01T00:28:22.744Z,16.47
2022-11-01T00:30:26.016Z,14.50
2022-11-01T00:32:29.685Z,15.00
2022-11-01T00:34:32.824Z,20.67
2022-11-01T00:36:37.476Z,12.87
2022-11-01T00:38:41.117Z,13.67
2022-11-01T00:40:44.407Z,14.20
2022-11-01T00:42:47.883Z,12.23
2022-11-01T00:44:52.391Z,15.30
2022-11-01T00:46:56.114Z,14.50
2022-11-01T00:48:59.409Z,14.30
2022-11-01T00:51:02.562Z,15.43
2022-11-01T00:53:05.756Z,13.30
2022-11-01T00:55:10.072Z,13.73
2022-11-01T00:57:13.336Z,13.47
2022-11-01T00:59:16.438Z,15.40
2022-11-01T01:01:21.454Z,17.17
2022-11-01T01:03:26.042Z,16.13
2022-11-01T01:05:29.444Z,15.07
2022-11-01T01:07:32.834Z,13.37
2022-11-01T01:09:36.052Z,14.17
2022-11-01T01:11:39.335Z,12.37
2022-11-01T01:13:42.763Z,13.87
2022-11-01T01:15:46.532Z,20.00
2022-11-01T01:17:51.252Z,14.40
2022-11-01T01:19:54.474Z,13.20
2022-11-01T01:22:01.126Z,13.70
2022-11-01T01:24:04.635Z,18.60
2022-11-01T01:26:08.748Z,12.53
2022-11-01T01:28:12.121Z,13.80
2022-11-01T01:30:16.314Z,13.90
2022-11-01T01:32:20.374Z,14.60
2022-11-01T01:34:24.894Z,15.97
2022-11-01T01:36:28.063Z,13.20
2022-11-01T01:38:31.578Z,13.27
2022-11-01T01:40:35.773Z,12.80
2022-11-01T01:42:40.059Z,12.77
2022-11-01T01:45:15.656Z,13.50
2022-11-01T01:47:23.792Z,12.07
2022-11-01T01:49:28.841Z,11.43
2022-11-01T01:51:32.011Z,11.10
2022-11-01T01:53:42.017Z,11.90
2022-11-01T01:55:51.867Z,12.17
2022-11-01T01:57:56.947Z,13.43
2022-11-01T02:00:00.750Z,12.33
2022-11-01T02:02:04.258Z,13.30
2022-11-01T02:04:12.858Z,13.43
2022-11-01T02:06:19.324Z,11.90
2022-11-01T02:08:27.974Z,11.20
2022-11-01T02:10:33.227Z,10.40
2022-11-01T02:12:38.104Z,10.47
2022-11-01T02:14:43.339Z,14.13
2022-11-01T02:16:56.666Z,10.10
2022-11-01T02:19:12.297Z,10.50
2022-11-01T02:21:45.496Z,10.50
2022-11-01T02:24:04.901Z,10.77
2022-11-01T02:26:31.180Z,10.20
2022-11-01T02:28:49.983Z,12.73
2022-11-01T02:31:01.775Z,10.50
2022-11-01T02:33:16.738Z,14.57
2022-11-01T02:35:26.082Z,11.50
2022-11-01T02:37:35.606Z,9.77
2022-11-01T02:39:43.877Z,16.27
2022-11-01T02:41:52.163Z,11.17
2022-11-01T02:44:00.319Z,10.33
2022-11-01T02:46:25.779Z,10.77
2022-11-01T02:48:30.656Z,11.93
2022-11-01T02:50:39.143Z,11.70
2022-11-01T02:52:42.916Z,12.43
2022-11-01T02:54:50.452Z,10.40
2022-11-01T02:56:53.801Z,12.70
2022-11-01T02:58:57.815Z,11.77
2022-11-01T03:01:01.084Z,11.77
2022-11-01T03:03:16.732Z,11.00
2022-11-01T03:05:29.076Z,11.50
2022-11-01T03:07:32.411Z,9.73
2022-11-01T03:09:36.685Z,10.90
2022-11-01T03:11:50.269Z,11.20
2022-11-01T03:14:01.130Z,9.23
2022-11-01T03:16:10.504Z,9.73
2022-11-01T03:18:19.608Z,12.13
2022-11-01T03:20:47.758Z,9.30
2022-11-01T03:22:55.183Z,9.23
2022-11-01T03:25:05.231Z,11.50
2022-11-01T03:27:13.248Z,10.77
2022-11-01T03:29:18.251Z,10.77
2022-11-01T03:31:24.430Z,11.53
2022-11-01T03:33:28.995Z,10.97
2022-11-01T03:35:38.065Z,8.57
2022-11-01T03:37:45.305Z,10.67
2022-11-01T03:39:52.319Z,10.57
2022-11-01T03:42:01.032Z,9.97
2022-11-01T03:44:04.862Z,7.93
2022-11-01T03:46:08.808Z,12.43
2022-11-01T03:48:12.032Z,10.50
2022-11-01T03:50:16.880Z,10.10
2022-11-01T03:52:21.583Z,10.60
2022-11-01T03:54:24.834Z,8.60
2022-11-01T03:56:28.715Z,10.13
2022-11-01T03:58:42.536Z,8.57
2022-11-01T04:00:47.191Z,10.40
2022-11-01T04:02:50.832Z,11.07
2022-11-01T04:04:53.944Z,10.27
2022-11-01T04:06:57.099Z,13.80
2022-11-01T04:09:01.794Z,13.77
2022-11-01T04:11:05.349Z,9.20
2022-11-01T04:13:09.040Z,11.10
2022-11-01T04:15:30.705Z,10.07
2022-11-01T04:17:47.778Z,9.43
2022-11-01T04:20:08.314Z,8.37
2022-11-01T04:22:11.520Z,8.13
2022-11-01T04:24:21.204Z,8.00
2022-11-01T04:26:25.110Z,9.47
2022-11-01T04:28:28.344Z,7.43
2022-11-01T04:30:31.948Z,8.57
2022-11-01T04:32:35.426Z,8.57
2022-11-01T04:34:44.858Z,11.10
2022-11-01T04:36:48.349Z,9.13
2022-11-01T04:38:52.529Z,8.23
2022-11-01T04:40:57.711Z,14.77
2022-11-01T04:43:01.544Z,10.07
2022-11-01T04:45:06.231Z,9.37
2022-11-01T04:47:09.880Z,11.07
2022-11-01T04:49:13.128Z,8.30
2022-11-01T04:51:16.434Z,9.90
2022-11-01T04:53:19.652Z,9.23
2022-11-01T04:55:22.871Z,8.73
2022-11-01T04:57:27.601Z,10.63
2022-11-01T04:59:30.729Z,11.23
2022-11-01T05:01:35.352Z,6.70
2022-11-01T05:03:41.319Z,8.37
2022-11-01T05:05:44.583Z,9.15
2022-11-01T05:07:47.938Z,8.32
2022-11-01T05:09:51.142Z,10.17
2022-11-01T05:11:54.249Z,9.30
2022-11-01T05:13:59.548Z,8.87
2022-11-01T05:16:21.172Z,8.57
2022-11-01T05:18:24.470Z,9.30
2022-11-01T05:20:28.035Z,9.20
2022-11-01T05:22:31.209Z,8.73
2022-11-01T05:24:34.474Z,9.70
2022-11-01T05:26:37.826Z,8.73
2022-11-01T05:28:40.911Z,6.90
2022-11-01T05:30:45.452Z,6.90
2022-11-01T05:32:48.946Z,6.80
2022-11-01T05:34:52.290Z,8.48
2022-11-01T05:36:56.015Z,8.55
2022-11-01T05:38:59.946Z,8.00
2022-11-01T05:41:03.983Z,8.50
2022-11-01T05:43:07.176Z,7.03
2022-11-01T05:45:11.141Z,8.48
2022-11-01T05:47:17.390Z,10.30
2022-11-01T05:49:22.622Z,8.35
2022-11-01T05:51:26.104Z,11.47
2022-11-01T05:53:29.272Z,9.05
2022-11-01T05:55:32.601Z,6.78
2022-11-01T05:57:35.936Z,13.80
2022-11-01T05:59:39.183Z,9.53
2022-11-01T06:01:42.953Z,11.60
2022-11-01T06:03:51.360Z,12.60
2022-11-01T06:05:54.547Z,11.00
2022-11-01T06:07:58.371Z,7.20
2022-11-01T06:10:01.538Z,8.05
2022-11-01T06:12:05.403Z,9.57
2022-11-01T06:14:11.697Z,8.30
2022-11-01T06:16:14.918Z,9.32
2022-11-01T06:18:18.192Z,10.20
2022-11-01T06:20:22.728Z,6.93
2022-11-01T06:22:26.080Z,8.83
2022-11-01T06:24:29.585Z,8.90
2022-11-01T06:26:32.716Z,4.63
2022-11-01T06:28:36.440Z,6.57
2022-11-01T06:30:40.088Z,5.20
2022-11-01T06:32:43.276Z,6.60
2022-11-01T06:34:46.432Z,6.50
2022-11-01T06:36:53.827Z,6.20
2022-11-01T06:38:56.937Z,6.70
2022-11-01T06:41:00.195Z,6.00
2022-11-01T06:43:05.495Z,5.25
2022-11-01T06:45:09.679Z,4.40
2022-11-01T06:47:13.783Z,3.57
2022-11-01T06:49:19.150Z,4.53
2022-11-01T06:51:22.950Z,4.13
2022-11-01T06:53:27.406Z,4.67
2022-11-01T06:55:31.084Z,4.30
2022-11-01T06:57:34.251Z,4.43
2022-11-01T06:59:37.377Z,4.63
2022-11-01T07:01:40.874Z,3.50
2022-11-01T07:03:44.257Z,4.50
2022-11-01T07:05:49.714Z,3.87
2022-11-01T07:07:52.931Z,3.70
2022-11-01T07:09:57.952Z,3.10
2022-11-01T07:12:01.415Z,4.40
2022-11-01T07:14:05.387Z,4.07
2022-11-01T07:16:09.379Z,3.37
2022-11-01T07:18:12.875Z,4.00
2022-11-01T07:20:16.565Z,4.90
2022-11-01T07:22:20.324Z,4.10
2022-11-01T07:24:23.851Z,4.77
2022-11-01T07:26:28.679Z,4.73
2022-11-01T07:28:32.419Z,4.00
2022-11-01T07:30:36.251Z,3.20
2022-11-01T07:32:40.049Z,2.60
2022-11-01T07:34:44.262Z,3.50
2022-11-01T07:36:48.136Z,3.30
2022-11-01T07:38:51.764Z,3.83
2022-11-01T07:40:55.259Z,3.37
2022-11-01T07:43:01.158Z,3.20
2022-11-01T07:45:07.967Z,3.23
2022-11-01T07:47:14.155Z,3.50
2022-11-01T07:49:20.568Z,3.10
2022-11-01T07:51:23.720Z,3.30
2022-11-01T07:53:27.867Z,3.07
2022-11-01T07:55:31.626Z,2.93
2022-11-01T07:57:38.627Z,2.90
2022-11-01T07:59:43.820Z,3.10
2022-11-01T08:01:47.499Z,3.03
2022-11-01T08:03:51.187Z,2.97
2022-11-01T08:05:54.913Z,2.93
2022-11-01T08:07:58.917Z,2.60
2022-11-01T08:10:02.547Z,2.70
2022-11-01T08:12:07.015Z,2.83
2022-11-01T08:14:12.156Z,3.50
2022-11-01T08:16:18.288Z,2.83
2022-11-01T08:18:24.313Z,3.30
2022-11-01T08:20:28.591Z,3.20
2022-11-01T08:22:32.210Z,3.20
2022-11-01T08:24:35.994Z,2.30
2022-11-01T08:26:39.527Z,2.67
2022-11-01T08:28:43.167Z,2.33
2022-11-01T08:30:48.157Z,2.50
2022-11-01T08:32:59.622Z,2.23
2022-11-01T08:35:03.430Z,2.43
2022-11-01T08:37:07.250Z,2.33
2022-11-01T08:39:11.026Z,2.03
2022-11-01T08:41:14.543Z,2.20
2022-11-01T08:43:18.232Z,2.47
2022-11-01T08:45:21.820Z,1.90
2022-11-01T08:47:25.314Z,2.40
2022-11-01T08:49:30.298Z,2.10
2022-11-01T08:51:33.789Z,1.63
2022-11-01T08:53:37.339Z,2.00
2022-11-01T08:55:41.813Z,2.43
2022-11-01T08:57:45.505Z,2.00
2022-11-01T08:59:50.050Z,2.00
2022-11-01T09:01:53.802Z,1.83
2022-11-01T09:03:58.504Z,1.80
2022-11-01T09:06:03.399Z,1.50
2022-11-01T09:08:07.708Z,1.73
2022-11-01T09:10:11.878Z,1.47
2022-11-01T09:12:16.022Z,1.93
2022-11-01T09:14:24.855Z,1.90
2022-11-01T09:16:28.682Z,1.23
2022-11-01T09:18:32.332Z,1.90
2022-11-01T09:20:35.855Z,1.87
2022-11-01T09:22:40.673Z,1.90
2022-11-01T09:24:44.148Z,1.60
2022-11-01T09:26:47.880Z,1.80
2022-11-01T09:28:51.490Z,2.17
2022-11-01T09:31:01.423Z,2.10
2022-11-01T09:33:18.675Z,2.07
2022-11-01T09:35:22.251Z,2.30
2022-11-01T09:37:25.800Z,1.57
2022-11-01T09:39:30.725Z,1.90
2022-11-01T09:41:35.842Z,2.30
2022-11-01T09:43:41.349Z,2.30
2022-11-01T09:45:44.894Z,1.73
2022-11-01T09:47:51.188Z,1.80
2022-11-01T09:50:00.208Z,1.40
2022-11-01T09:52:04.031Z,1.43
2022-11-01T09:54:08.486Z,1.07
2022-11-01T09:56:16.387Z,1.77
2022-11-01T09:58:25.212Z,1.50
2022-11-01T10:00:32.039Z,1.90
2022-11-01T10:02:57.398Z,1.93
2022-11-01T10:05:19.070Z,1.83
2022-11-01T10:07:28.304Z,1.50
2022-11-01T10:09:36.849Z,1.57
2022-11-01T10:11:53.017Z,1.50
2022-11-01T10:14:01.973Z,2.17
2022-11-01T10:16:11.231Z,2.10
2022-11-01T10:18:20.891Z,2.07
2022-11-01T10:20:26.721Z,1.40
2022-11-01T10:22:34.368Z,2.47
2022-11-01T10:24:41.019Z,1.80
2022-11-01T10:26:45.430Z,1.93
2022-11-01T10:28:53.927Z,1.93
2022-11-01T10:31:01.786Z,1.90
2022-11-01T10:33:08.454Z,1.90
2022-11-01T10:35:16.433Z,1.90
2022-11-01T10:37:24.738Z,2.40
2022-11-01T10:41:56.388Z,2.50
2022-11-01T10:44:03.207Z,2.00
2022-11-01T10:46:08.784Z,2.20
2022-11-01T10:48:15.744Z,2.70
2022-11-01T10:50:20.521Z,2.57
2022-11-01T10:52:26.032Z,3.00
2022-11-01T10:54:31.679Z,3.00
2022-11-01T10:56:38.305Z,3.07
2022-11-01T10:58:43.612Z,3.40
2022-11-01T11:00:48.906Z,3.17
2022-11-01T11:02:55.086Z,2.80
2022-11-01T11:04:59.215Z,3.03
2022-11-01T11:07:02.992Z,3.43
2022-11-01T11:09:07.181Z,3.77
2022-11-01T11:11:14.052Z,3.67
2022-11-01T11:13:19.237Z,4.23
2022-11-01T11:15:23.969Z,4.30
2022-11-01T11:17:33.447Z,3.77
2022-11-01T11:19:38.993Z,3.90
2022-11-01T11:21:44.545Z,3.57
2022-11-01T11:23:48.594Z,3.80
2022-11-01T11:25:52.364Z,3.70
2022-11-01T11:27:56.808Z,3.40
2022-11-01T11:30:02.370Z,3.90
2022-11-01T11:32:07.380Z,3.80
2022-11-01T11:34:20.602Z,3.83
2022-11-01T11:36:28.373Z,4.03
2022-11-01T11:38:45.423Z,4.17
2022-11-01T11:40:49.011Z,4.47
2022-11-01T11:42:53.630Z,4.13
2022-11-01T11:44:59.983Z,4.07
2022-11-01T11:47:03.821Z,4.77
2022-11-01T11:49:07.458Z,4.13
2022-11-01T11:51:12.593Z,4.00
2022-11-01T11:53:19.146Z,3.80
2022-11-01T11:55:28.783Z,4.20
2022-11-01T11:57:32.290Z,3.70
2022-11-01T11:59:36.287Z,4.70
2022-11-01T12:01:39.972Z,4.63
2022-11-01T12:03:48.041Z,4.27
2022-11-01T12:05:56.100Z,3.53
2022-11-01T12:08:01.123Z,4.77
2022-11-01T12:10:06.189Z,4.07
2022-11-01T12:12:10.785Z,4.70
2022-11-01T12:14:23.750Z,4.60
2022-11-01T12:16:50.802Z,4.40
2022-11-01T12:19:06.432Z,3.90
2022-11-01T12:21:25.063Z,4.60
2022-11-01T12:23:32.279Z,4.07
2022-11-01T12:25:37.004Z,3.57
2022-11-01T12:27:44.166Z,3.70
2022-11-01T12:29:51.348Z,3.30
2022-11-01T12:31:55.806Z,3.13
2022-11-01T12:34:01.555Z,4.77
2022-11-01T12:36:05.255Z,3.83
2022-11-01T12:38:20.975Z,3.87
2022-11-01T12:40:29.112Z,4.00
2022-11-01T12:42:42.562Z,3.67
2022-11-01T12:44:47.982Z,4.00
2022-11-01T12:46:55.261Z,3.40
2022-11-01T12:49:02.599Z,3.30
2022-11-01T12:51:08.497Z,3.70
2022-11-01T12:53:14.842Z,3.40
2022-11-01T12:55:22.453Z,3.37
2022-11-01T12:57:27.605Z,3.10
2022-11-01T12:59:34.055Z,3.50
2022-11-01T13:01:40.382Z,3.77
2022-11-01T13:03:47.789Z,3.60
2022-11-01T13:05:53.555Z,3.90
2022-11-01T13:08:03.391Z,3.90
2022-11-01T13:10:12.757Z,3.77
2022-11-01T13:12:19.176Z,4.00
2022-11-01T13:14:32.721Z,3.78
2022-11-01T13:16:39.279Z,3.80
2022-11-01T13:18:45.836Z,4.23
2022-11-01T13:20:53.948Z,5.40
2022-11-01T13:23:02.688Z,5.00
2022-11-01T13:25:09.333Z,5.20
2022-11-01T13:27:17.621Z,5.20
2022-11-01T13:29:29.766Z,5.43
2022-11-01T13:31:39.070Z,6.47
2022-11-01T13:33:45.635Z,5.47
2022-11-01T13:35:53.326Z,6.60
2022-11-01T13:37:59.277Z,5.87
2022-11-01T13:40:09.837Z,6.70
2022-11-01T13:42:16.266Z,6.80
2022-11-01T13:44:22.258Z,5.80
2022-11-01T13:46:40.802Z,7.90
2022-11-01T13:48:52.302Z,7.43
2022-11-01T13:51:13.802Z,6.53
2022-11-01T13:53:20.367Z,6.43
2022-11-01T13:55:26.058Z,6.37
2022-11-01T13:57:30.018Z,6.30
2022-11-01T13:59:35.566Z,6.40
2022-11-01T14:01:41.292Z,5.73
2022-11-01T14:03:49.663Z,6.50
2022-11-01T14:06:12.255Z,5.47
2022-11-01T14:08:28.344Z,5.50
2022-11-01T14:10:47.954Z,6.70
2022-11-01T14:13:10.919Z,5.20
2022-11-01T14:15:19.602Z,4.60
2022-11-01T14:18:00.902Z,5.80
2022-11-01T14:20:23.566Z,5.13
2022-11-01T14:22:29.255Z,4.93
2022-11-01T14:24:35.713Z,4.23
2022-11-01T14:27:01.957Z,4.37
2022-11-01T14:29:09.063Z,3.90
2022-11-01T14:31:15.131Z,4.20
2022-11-01T14:33:20.226Z,4.83
2022-11-01T14:35:28.862Z,4.70
2022-11-01T14:37:37.251Z,4.33
2022-11-01T14:39:44.830Z,4.23
2022-11-01T14:41:55.195Z,4.37
2022-11-01T14:46:13.340Z,4.63
2022-11-01T14:48:24.139Z,4.50
2022-11-01T14:50:32.610Z,57.93
2022-11-01T14:52:41.692Z,7.63
2022-11-01T14:54:51.075Z,7.43
2022-11-01T14:56:55.976Z,11.90
2022-11-01T14:59:12.922Z,8.53
2022-11-01T15:01:18.445Z,6.50
2022-11-01T15:03:23.010Z,5.40
2022-11-01T15:05:27.283Z,5.20
2022-11-01T15:07:33.975Z,5.67
2022-11-01T15:09:38.005Z,5.00
2022-11-01T15:11:44.346Z,4.40
2022-11-01T15:13:47.870Z,5.33
2022-11-01T15:16:02.920Z,6.30
2022-11-01T15:18:09.356Z,5.30
2022-11-01T15:20:15.031Z,4.07
2022-11-01T15:22:19.238Z,4.53
2022-11-01T15:24:25.976Z,4.20
2022-11-01T15:26:32.480Z,6.07
2022-11-01T15:28:41.379Z,4.50
2022-11-01T15:30:44.869Z,5.37
2022-11-01T15:32:53.889Z,5.17
2022-11-01T15:34:58.910Z,4.70
2022-11-01T15:37:12.571Z,4.10
2022-11-01T15:39:21.360Z,5.33
2022-11-01T15:41:28.670Z,4.47
2022-11-01T15:43:32.894Z,4.87
2022-11-01T15:45:40.143Z,4.20
2022-11-01T15:47:45.817Z,4.37
2022-11-01T15:49:54.199Z,4.03
2022-11-01T15:52:01.648Z,4.90
2022-11-01T15:54:06.916Z,5.00
2022-11-01T15:56:12.896Z,4.60
2022-11-01T15:58:20.868Z,4.80
2022-11-01T16:00:25.325Z,4.23
2022-11-01T16:02:35.317Z,4.73
2022-11-01T16:04:44.973Z,5.73
2022-11-01T16:06:52.183Z,4.80
2022-11-01T16:08:59.338Z,5.90
2022-11-01T16:11:03.086Z,4.63
2022-11-01T16:13:06.893Z,5.50
2022-11-01T16:15:22.423Z,4.90
2022-11-01T16:17:27.326Z,6.10
2022-11-01T16:19:37.094Z,4.73
2022-11-01T16:24:25.479Z,4.83
2022-11-01T16:26:29.763Z,5.63
2022-11-01T16:28:40.097Z,5.37
2022-11-01T16:30:46.530Z,4.93
2022-11-01T16:32:49.870Z,4.50
2022-11-01T16:34:55.513Z,6.27
2022-11-01T16:36:58.880Z,5.60
2022-11-01T16:39:02.212Z,4.00
2022-11-01T16:41:07.431Z,5.10
2022-11-01T16:43:10.978Z,4.20
2022-11-01T16:45:14.641Z,3.90
2022-11-01T16:47:18.351Z,4.47
2022-11-01T16:49:24.091Z,4.57
2022-11-01T16:51:30.563Z,4.50
2022-11-01T16:53:33.680Z,4.67
2022-11-01T16:55:39.976Z,3.70
2022-11-01T16:57:43.231Z,4.70
2022-11-01T16:59:46.934Z,4.73
2022-11-01T17:01:51.997Z,5.30
2022-11-01T17:03:55.623Z,5.00
2022-11-01T17:05:59.616Z,5.10
2022-11-01T17:08:04.710Z,6.87
2022-11-01T17:10:18.281Z,6.80
2022-11-01T17:12:21.692Z,6.80
2022-11-01T17:14:26.366Z,6.73
2022-11-01T17:16:29.657Z,6.47
2022-11-01T17:18:35.572Z,6.20
2022-11-01T17:20:41.503Z,7.17
2022-11-01T17:22:45.613Z,6.20
2022-11-01T17:24:51.101Z,5.00
2022-11-01T17:26:57.917Z,4.57
2022-11-01T17:29:01.527Z,5.13
2022-11-01T17:31:05.219Z,6.27
2022-11-01T17:33:08.699Z,8.43
2022-11-01T17:35:12.332Z,12.00
2022-11-01T17:37:17.594Z,10.60
2022-11-01T17:39:21.339Z,9.87
2022-11-01T17:41:25.952Z,8.60
2022-11-01T17:43:29.451Z,7.40
2022-11-01T17:45:33.049Z,8.87
2022-11-01T17:47:36.450Z,8.07
2022-11-01T17:49:40.084Z,7.43
2022-11-01T17:51:43.679Z,7.27
2022-11-01T17:53:47.344Z,6.00
2022-11-01T17:55:57.529Z,6.43
2022-11-01T17:58:02.672Z,7.13
2022-11-01T18:00:07.375Z,6.60
2022-11-01T18:02:12.048Z,6.33
2022-11-01T18:04:15.658Z,6.13
2022-11-01T18:06:19.264Z,7.40
2022-11-01T18:08:26.342Z,5.53
2022-11-01T18:10:37.677Z,6.50
2022-11-01T18:12:44.597Z,6.43
2022-11-01T18:14:56.772Z,6.77
2022-11-01T18:17:08.427Z,6.60
2022-11-01T18:19:44.335Z,5.90
2022-11-01T18:21:52.454Z,7.30
2022-11-01T18:23:57.375Z,7.20
2022-11-01T18:26:00.884Z,7.50
2022-11-01T18:28:13.644Z,21.27
2022-11-01T18:30:20.259Z,16.80
2022-11-01T18:32:31.570Z,16.13
2022-11-01T18:34:42.315Z,15.00
2022-11-01T18:36:47.884Z,16.60
2022-11-01T18:38:59.045Z,18.30
2022-11-01T18:41:03.058Z,17.73
2022-11-01T18:43:09.680Z,16.17
2022-11-01T18:45:26.833Z,14.37
2022-11-01T18:47:35.920Z,14.90
2022-11-01T18:49:39.720Z,13.77
2022-11-01T18:51:44.647Z,15.93
2022-11-01T18:53:56.197Z,16.60
2022-11-01T18:56:23.400Z,17.30
2022-11-01T18:58:30.359Z,10.50
2022-11-01T19:00:35.509Z,11.90
2022-11-01T19:02:41.293Z,13.10
2022-11-01T19:04:47.441Z,12.70
2022-11-01T19:06:50.732Z,11.73
2022-11-01T19:08:57.662Z,12.10
2022-11-01T19:11:02.118Z,10.10
2022-11-01T19:13:13.004Z,11.70
2022-11-01T19:15:23.360Z,12.47
2022-11-01T19:17:30.993Z,11.90
2022-11-01T19:19:36.188Z,10.40
2022-11-01T19:21:39.985Z,11.10
2022-11-01T19:23:45.107Z,9.87
2022-11-01T19:25:50.089Z,7.80
2022-11-01T19:27:55.426Z,8.67
2022-11-01T19:30:00.317Z,7.40
2022-11-01T19:32:05.411Z,7.67
2022-11-01T19:34:18.921Z,7.90
2022-11-01T19:36:23.639Z,8.60
2022-11-01T19:38:27.268Z,7.70
2022-11-01T19:40:34.058Z,8.80
2022-11-01T19:42:37.528Z,7.47
2022-11-01T19:44:40.747Z,8.40
2022-11-01T19:46:44.027Z,7.93
2022-11-01T19:48:47.789Z,8.60
2022-11-01T19:50:52.758Z,7.20
2022-11-01T19:52:57.961Z,7.57
2022-11-01T19:55:01.221Z,6.93
2022-11-01T19:57:13.620Z,7.17
2022-11-01T19:59:17.557Z,7.00
2022-11-01T20:01:29.948Z,8.10
2022-11-01T20:03:36.540Z,7.93
2022-11-01T20:05:40.580Z,7.33
2022-11-01T20:07:45.157Z,7.33
2022-11-01T20:09:49.366Z,7.33
2022-11-01T20:11:52.891Z,7.50
2022-11-01T20:13:56.261Z,7.10
2022-11-01T20:16:00.122Z,6.77
2022-11-01T20:18:04.145Z,7.80
2022-11-01T20:20:08.504Z,6.60
2022-11-01T20:22:11.979Z,7.80
2022-11-01T20:24:16.930Z,7.47
2022-11-01T20:26:20.237Z,6.83
2022-11-01T20:28:23.925Z,6.30
2022-11-01T20:30:28.048Z,7.00
2022-11-01T20:32:31.316Z,6.40
2022-11-01T20:34:35.291Z,7.53
2022-11-01T20:36:39.179Z,7.73
2022-11-01T20:38:42.613Z,6.40
2022-11-01T20:40:47.291Z,7.57
2022-11-01T20:42:50.701Z,5.43
2022-11-01T20:44:53.857Z,7.10
2022-11-01T20:46:57.019Z,6.47
2022-11-01T20:49:00.962Z,6.70
2022-11-01T20:51:04.957Z,6.20
2022-11-01T20:53:09.814Z,6.87
2022-11-01T20:55:14.057Z,7.53
2022-11-01T20:57:27.460Z,7.03
2022-11-01T20:59:31.379Z,5.93
2022-11-01T21:01:34.820Z,7.23
2022-11-01T21:03:38.046Z,7.40
2022-11-01T21:05:41.276Z,6.83
2022-11-01T21:07:47.843Z,7.00
2022-11-01T21:09:52.710Z,7.40
2022-11-01T21:11:56.173Z,6.80
2022-11-01T21:14:01.050Z,5.90
2022-11-01T21:16:09.336Z,7.03
2022-11-01T21:18:32.741Z,7.00
2022-11-01T21:20:37.662Z,7.17
2022-11-01T21:22:41.080Z,6.83
2022-11-01T21:24:47.309Z,7.30
2022-11-01T21:26:55.768Z,6.23
2022-11-01T21:29:04.755Z,6.77
2022-11-01T21:31:21.140Z,6.90
2022-11-01T21:33:36.528Z,7.43
2022-11-01T21:35:41.233Z,10.00
2022-11-01T21:37:44.510Z,12.53
2022-11-01T21:39:47.924Z,11.10
2022-11-01T21:41:52.272Z,11.43
2022-11-01T21:43:57.082Z,11.40
2022-11-01T21:46:01.611Z,7.33
2022-11-01T21:48:19.988Z,7.70
2022-11-01T21:50:23.689Z,6.93
2022-11-01T21:52:27.353Z,9.80
2022-11-01T21:54:34.128Z,9.30
2022-11-01T21:56:37.392Z,7.70
2022-11-01T21:58:40.774Z,7.70
2022-11-01T22:00:44.246Z,7.93
2022-11-01T22:02:49.229Z,9.13
2022-11-01T22:04:52.914Z,8.90
2022-11-01T22:06:56.259Z,7.10
2022-11-01T22:09:02.138Z,7.30
2022-11-01T22:11:05.533Z,6.13
2022-11-01T22:13:09.221Z,7.00
2022-11-01T22:15:14.160Z,6.53
2022-11-01T22:17:17.279Z,7.27
2022-11-01T22:19:21.935Z,7.40
2022-11-01T22:21:25.388Z,8.10
2022-11-01T22:23:28.492Z,7.47
2022-11-01T22:25:32.448Z,6.73
2022-11-01T22:27:36.451Z,6.67
2022-11-01T22:29:39.860Z,7.40
2022-11-01T22:31:43.343Z,7.50
2022-11-01T22:33:49.609Z,7.07
2022-11-01T22:35:57.107Z,5.83
2022-11-01T22:38:01.600Z,7.07
2022-11-01T22:40:11.260Z,6.00
2022-11-01T22:42:15.475Z,6.67
2022-11-01T22:44:20.076Z,7.17
2022-11-01T22:46:25.613Z,7.00
2022-11-01T22:48:29.024Z,6.27
2022-11-01T22:50:32.926Z,6.43
2022-11-01T22:52:41.231Z,6.97
2022-11-01T22:54:46.155Z,5.93
2022-11-01T22:56:53.169Z,7.00
2022-11-01T22:58:57.012Z,6.50
2022-11-01T23:01:01.597Z,6.67
2022-11-01T23:03:12.976Z,6.53
2022-11-01T23:05:22.274Z,7.93
2022-11-01T23:07:29.885Z,6.80
2022-11-01T23:09:34.780Z,7.20
2022-11-01T23:11:55.795Z,6.40
2022-11-01T23:14:16.873Z,6.67
2022-11-01T23:16:24.192Z,5.60
2022-11-01T23:18:31.943Z,6.37
2022-11-01T23:20:35.477Z,6.73
2022-11-01T23:22:39.371Z,7.03
2022-11-01T23:24:44.607Z,7.70
2022-11-01T23:26:48.102Z,7.30
2022-11-01T23:28:53.859Z,8.00
2022-11-01T23:30:58.574Z,6.63
2022-11-01T23:33:02.485Z,6.80
2022-11-01T23:35:12.502Z,6.40
2022-11-01T23:37:18.478Z,6.93
2022-11-01T23:39:21.973Z,6.20
2022-11-01T23:41:27.765Z,7.23
2022-11-01T23:43:35.136Z,6.20
2022-11-01T23:45:38.660Z,6.63
2022-11-01T23:47:42.988Z,6.70
2022-11-01T23:49:47.345Z,6.10
2022-11-01T23:51:51.346Z,5.80
2022-11-01T23:53:56.507Z,7.33
2022-11-01T23:56:00.624Z,6.67
2022-11-01T23:58:06.971Z,6.17
